Time;durP1;ratioP1;P1;durP2;ratioP2;P2;SDS_P1;SDS_P2;PMS_P1;PMS_P2;Temp;Humidity;BMP_temperature;BMP_pressure;BME280_temperature;BME280_humidity;BME280_pressure;Samples;Min_cycle;Max_cycle;Signal;HPM_P1;HPM_P2
2022/08/04 00:01:33;;;;;;;18.70;5.22;;;18.00;67.40;;;;;;4151955;23;20062;-93
2022/08/04 00:03:49;;;;;;;;;;;18.00;67.30;;;;;;4128901;28;20606;-94
2022/08/04 00:06:19;;;;;;;15.35;5.30;;;18.00;67.70;;;;;;4126722;28;20430;-93
2022/08/04 00:08:35;;;;;;;13.90;5.35;;;18.00;67.40;;;;;;4109104;28;20424;-91
2022/08/04 00:10:39;;;;;;;13.95;5.70;;;17.90;67.30;;;;;;4094210;28;20213;-93
2022/08/04 00:12:45;;;;;;;15.33;6.37;;;17.90;67.50;;;;;;4108104;28;20031;-93
2022/08/04 00:14:49;;;;;;;21.08;5.78;;;17.90;67.80;;;;;;4110622;28;20027;-93
2022/08/04 00:16:53;;;;;;;13.38;5.55;;;17.90;68.00;;;;;;4092895;28;20505;-92
2022/08/04 00:19:30;;;;;;;13.00;5.30;;;17.90;68.30;;;;;;4095212;28;20027;-94
2022/08/04 00:21:37;;;;;;;17.60;6.20;;;17.90;68.70;;;;;;4108820;28;20045;-92
2022/08/04 00:23:41;;;;;;;13.35;5.50;;;17.90;68.50;;;;;;4110480;28;20057;-94
2022/08/04 00:25:43;;;;;;;15.30;6.18;;;17.90;68.60;;;;;;4109248;28;20035;-92
2022/08/04 00:27:54;;;;;;;18.10;5.80;;;17.90;68.80;;;;;;4110399;28;21661;-95
2022/08/04 00:29:56;;;;;;;13.20;5.75;;;17.90;69.20;;;;;;4109277;28;20038;-95
2022/08/04 00:31:58;;;;;;;12.98;5.60;;;17.90;69.20;;;;;;4110705;28;20465;-94
2022/08/04 00:34:03;;;;;;;16.42;5.63;;;17.90;69.10;;;;;;4091673;28;20445;-94
2022/08/04 00:36:11;;;;;;;12.70;5.47;;;17.80;69.30;;;;;;4092845;28;20379;-95
2022/08/04 00:38:14;;;;;;;16.15;5.68;;;17.90;69.60;;;;;;4108985;28;20544;-93
2022/08/04 00:40:34;;;;;;;;;;;17.90;69.40;;;;;;4108381;28;20033;-93
2022/08/04 00:43:02;;;;;;;13.85;5.55;;;17.90;70.30;;;;;;4110710;28;19914;-94
2022/08/04 00:45:28;;;;;;;20.45;6.43;;;17.90;69.50;;;;;;4111493;28;20034;-93
2022/08/04 00:47:39;;;;;;;23.67;6.82;;;17.90;69.80;;;;;;4109029;28;20461;-92
2022/08/04 00:49:45;;;;;;;19.70;7.70;;;17.90;69.40;;;;;;4109956;28;20035;-94
2022/08/04 00:51:51;;;;;;;29.92;8.45;;;17.80;69.60;;;;;;4109931;28;20469;-94
2022/08/04 00:54:22;;;;;;;18.95;7.80;;;17.80;69.70;;;;;;4096984;28;20054;-94
2022/08/04 00:56:49;;;;;;;18.65;8.32;;;17.80;70.40;;;;;;4108329;28;20030;-94
2022/08/04 00:59:05;;;;;;;25.48;8.88;;;17.80;70.70;;;;;;4092765;28;20588;-92
2022/08/04 01:01:29;;;;;;;27.58;9.10;;;17.80;70.40;;;;;;4053870;28;1187906;-94
2022/08/04 01:04:07;;;;;;;28.35;9.27;;;17.80;70.40;;;;;;4110829;28;20429;-94
2022/08/04 01:06:26;;;;;;;20.23;8.73;;;17.80;71.00;;;;;;4104284;28;20691;-93
2022/08/04 01:08:59;;;;;;;25.27;9.15;;;17.70;71.10;;;;;;4109962;28;20054;-95
2022/08/04 01:11:12;;;;;;;24.30;9.50;;;17.70;71.30;;;;;;4111562;28;20417;-94
2022/08/04 01:13:40;;;;;;;18.27;8.25;;;17.70;71.20;;;;;;4110485;28;20501;-94
2022/08/04 01:16:16;;;;;;;21.45;8.20;;;17.70;71.70;;;;;;4110465;28;20034;-93
2022/08/04 01:18:49;;;;;;;32.15;8.35;;;17.70;72.00;;;;;;4073008;28;20074;-93
2022/08/04 01:21:18;;;;;;;16.20;9.35;;;17.70;71.90;;;;;;4081386;28;20130;-93
2022/08/04 01:23:42;;;;;;;21.40;8.75;;;17.70;71.80;;;;;;4093974;28;20474;-92
2022/08/04 01:26:03;;;;;;;19.23;8.20;;;17.70;71.90;;;;;;4109364;28;20977;-94
2022/08/04 01:28:45;;;;;;;19.60;7.72;;;17.70;71.60;;;;;;4108344;28;20062;-94
2022/08/04 01:30:48;;;;;;;19.55;8.07;;;17.70;72.10;;;;;;4110145;28;20662;-95
2022/08/04 01:32:52;;;;;;;16.75;7.65;;;17.70;71.70;;;;;;4110698;28;20568;-93
2022/08/04 01:34:52;;;;;;;13.05;6.85;;;17.70;71.80;;;;;;4093415;28;20473;-95
2022/08/04 01:37:07;;;;;;;18.17;7.57;;;17.70;71.80;;;;;;4093446;28;20035;-94
2022/08/04 01:41:29;;;;;;;21.30;7.43;;;17.70;71.90;;;;;;4110168;28;20461;-93
2022/08/04 01:43:31;;;;;;;22.10;8.60;;;17.70;71.80;;;;;;4108529;28;20423;-94
2022/08/04 01:45:35;;;;;;;22.55;8.95;;;17.70;71.80;;;;;;4110347;28;20417;-95
2022/08/04 01:47:50;;;;;;;18.73;7.53;;;17.70;71.80;;;;;;4107994;28;20039;-93
2022/08/04 01:49:53;;;;;;;19.52;7.63;;;17.60;72.00;;;;;;4095199;28;20564;-94
2022/08/04 01:51:55;;;;;;;22.33;7.90;;;17.60;71.80;;;;;;4094859;28;20039;-93
2022/08/04 01:53:57;;;;;;;21.83;8.40;;;17.60;71.80;;;;;;4111057;28;20050;-95
2022/08/04 01:55:59;;;;;;;20.30;7.53;;;17.60;71.80;;;;;;4093317;28;20517;-93
2022/08/04 01:58:03;;;;;;;15.03;7.50;;;17.60;71.90;;;;;;4110770;28;20035;-93
2022/08/04 02:00:05;;;;;;;22.38;7.22;;;17.60;71.90;;;;;;4115153;28;20318;-92
2022/08/04 02:02:06;;;;;;;21.08;7.43;;;17.60;71.90;;;;;;4112914;28;21943;-92
2022/08/04 02:04:12;;;;;;;17.27;6.85;;;17.60;71.90;;;;;;4093725;28;20041;-92
2022/08/04 02:06:24;;;;;;;15.80;6.68;;;17.60;71.80;;;;;;4108907;28;20405;-93
2022/08/04 02:08:50;;;;;;;15.60;6.55;;;17.60;71.90;;;;;;4110850;28;20496;-92
2022/08/04 02:11:21;;;;;;;16.45;5.93;;;17.50;71.90;;;;;;4097430;28;20432;-92
2022/08/04 02:13:33;;;;;;;15.43;6.65;;;17.60;71.80;;;;;;4114176;28;20084;-94
2022/08/04 02:16:05;;;;;;;18.73;6.57;;;17.50;71.60;;;;;;4113883;28;20441;-92
2022/08/04 02:18:08;;;;;;;18.65;6.57;;;17.50;71.50;;;;;;4107854;28;20042;-93
2022/08/04 02:20:21;;;;;;;;;;;17.50;71.30;;;;;;4096862;28;20034;-93
2022/08/04 02:22:25;;;;;;;19.17;6.15;;;17.50;71.60;;;;;;4113969;28;19914;-93
2022/08/04 02:24:28;;;;;;;15.57;5.78;;;17.50;71.00;;;;;;4113557;28;20058;-94
2022/08/04 02:26:35;;;;;;;13.20;5.97;;;17.40;70.90;;;;;;4080658;29;20034;-95
2022/08/04 02:29:12;;;;;;;16.83;5.55;;;17.50;71.00;;;;;;4110912;28;20066;-91
2022/08/04 02:31:18;;;;;;;13.68;5.47;;;17.40;71.00;;;;;;4112674;28;20055;-94
2022/08/04 02:33:25;;;;;;;15.75;6.45;;;17.40;71.00;;;;;;4096484;29;20047;-92
2022/08/04 02:35:27;;;;;;;12.52;5.28;;;17.40;71.00;;;;;;4110132;28;20117;-93
2022/08/04 02:37:30;;;;;;;12.30;5.15;;;17.40;71.00;;;;;;4113886;28;20366;-93
2022/08/04 02:39:34;;;;;;;19.92;6.53;;;17.30;70.90;;;;;;4112168;28;20443;-91
2022/08/04 02:41:36;;;;;;;22.48;8.68;;;17.30;71.00;;;;;;4097230;28;20038;-93
2022/08/04 02:43:40;;;;;;;21.92;8.60;;;17.30;71.20;;;;;;4113431;28;20074;-94
2022/08/04 02:45:42;;;;;;;23.50;8.43;;;17.30;71.30;;;;;;4112184;28;20093;-93
2022/08/04 02:47:45;;;;;;;25.67;8.55;;;17.30;71.40;;;;;;4113511;28;20031;-91
2022/08/04 02:49:46;;;;;;;21.35;7.40;;;17.30;71.60;;;;;;4113338;28;20109;-93
2022/08/04 02:51:51;;;;;;;15.88;6.70;;;17.30;71.70;;;;;;4095775;28;20648;-94
2022/08/04 02:53:54;;;;;;;14.23;6.13;;;17.30;71.70;;;;;;4113546;28;20765;-92
2022/08/04 02:55:56;;;;;;;22.33;7.20;;;17.30;71.60;;;;;;4113644;28;20035;-93
2022/08/04 02:57:59;;;;;;;17.35;8.05;;;17.30;71.60;;;;;;4096246;28;20114;-92
2022/08/04 03:00:13;;;;;;;23.05;7.28;;;17.30;71.60;;;;;;4111397;28;20425;-93
2022/08/04 03:02:15;;;;;;;;;;;17.30;71.60;;;;;;4080785;29;20046;-93
2022/08/04 03:04:25;;;;;;;26.55;6.25;;;17.30;71.80;;;;;;4113311;28;19942;-93
2022/08/04 03:06:37;;;;;;;19.83;6.13;;;17.30;71.20;;;;;;4110353;28;20082;-93
2022/08/04 03:09:10;;;;;;;17.15;6.47;;;17.20;71.30;;;;;;4111300;28;20118;-94
2022/08/04 03:11:36;;;;;;;21.88;7.95;;;17.20;71.50;;;;;;4111711;28;20027;-94
2022/08/04 03:14:10;;;;;;;26.50;8.38;;;17.20;71.60;;;;;;4113267;28;20366;-94
2022/08/04 03:16:58;;;;;;;24.88;9.40;;;17.20;71.70;;;;;;4097817;29;20027;-92
2022/08/04 03:19:10;;;;;;;18.83;8.18;;;17.20;72.40;;;;;;4113336;28;20030;-92
2022/08/04 03:21:58;;;;;;;22.60;8.75;;;17.20;72.30;;;;;;4115021;28;20327;-92
2022/08/04 03:24:26;;;;;;;21.35;8.60;;;17.20;72.70;;;;;;4112339;28;20029;-93
2022/08/04 03:26:32;;;;;;;16.80;8.15;;;17.20;72.50;;;;;;4116660;28;20457;-92
2022/08/04 03:28:53;;;;;;;20.45;7.85;;;17.20;72.50;;;;;;4112414;28;20037;-93
2022/08/04 03:31:09;;;;;;;21.75;8.70;;;17.20;72.60;;;;;;4068024;28;20560;-94
2022/08/04 03:33:35;;;;;;;18.98;8.55;;;17.20;72.90;;;;;;4111228;28;20409;-93
2022/08/04 03:35:55;;;;;;;20.58;8.93;;;17.20;73.10;;;;;;4093826;28;20055;-92
2022/08/04 03:38:26;;;;;;;24.23;9.05;;;17.20;72.90;;;;;;4111387;28;20046;-92
2022/08/04 03:41:11;;;;;;;24.27;8.57;;;17.20;73.00;;;;;;4113042;28;20023;-93
2022/08/04 03:43:40;;;;;;;24.00;9.02;;;17.30;73.50;;;;;;4093328;28;20031;-94
2022/08/04 03:45:53;;;;;;;20.88;8.57;;;17.20;73.60;;;;;;4115962;28;20034;-92
2022/08/04 03:48:18;;;;;;;24.92;9.95;;;17.30;73.40;;;;;;4117622;28;20121;-93
2022/08/04 03:53:07;;;;;;;22.58;9.48;;;17.20;73.70;;;;;;4116157;28;20027;-93
2022/08/04 03:53:31;;;;;;;19.20;8.68;;;17.20;73.90;;;;;;4111440;28;20030;-94
2022/08/04 03:55:43;;;;;;;;;;;17.20;74.10;;;;;;4114869;28;20481;-94
2022/08/04 03:58:10;;;;;;;23.35;9.20;;;17.30;74.40;;;;;;4112415;28;19914;-93
2022/08/04 04:00:18;;;;;;;27.88;9.70;;;17.30;74.00;;;;;;4111189;28;20393;-93
2022/08/04 04:02:48;;;;;;;21.33;9.95;;;17.30;73.70;;;;;;4112411;28;20384;-94
2022/08/04 04:05:27;;;;;;;24.80;9.77;;;17.30;74.10;;;;;;4074135;28;20062;-95
2022/08/04 04:07:42;;;;;;;21.90;8.02;;;17.30;74.20;;;;;;4102928;28;20046;-93
2022/08/04 04:10:01;;;;;;;24.45;9.05;;;17.30;74.10;;;;;;4109003;28;20669;-93
2022/08/04 04:12:33;;;;;;;21.38;8.40;;;17.30;74.00;;;;;;4111521;28;20029;-93
2022/08/04 04:14:52;;;;;;;18.55;8.13;;;17.30;74.30;;;;;;4108635;28;20093;-93
2022/08/04 04:16:58;;;;;;;21.73;7.78;;;17.20;74.10;;;;;;4109221;28;20556;-94
2022/08/04 04:19:20;;;;;;;15.95;7.43;;;17.20;74.00;;;;;;4108132;28;20488;-94
2022/08/04 04:21:21;;;;;;;22.02;7.45;;;17.30;74.20;;;;;;4111704;28;20531;-94
2022/08/04 04:23:50;;;;;;;19.90;8.48;;;17.20;74.10;;;;;;4112252;28;20018;-93
2022/08/04 04:26:30;;;;;;;16.88;8.50;;;17.20;74.50;;;;;;4119817;28;20042;-95
2022/08/04 04:29:17;;;;;;;;;;;;;;;;;;;;;
2022/08/04 04:32:23;;;;;;;17.67;8.43;;;17.30;74.90;;;;;;4108104;28;20039;-94
2022/08/04 04:35:03;;;;;;;15.38;8.07;;;17.40;75.30;;;;;;4083362;23;20065;-86
2022/08/04 04:37:41;;;;;;;19.35;9.07;;;17.30;75.20;;;;;;4126909;28;20077;-87
2022/08/04 04:40:06;;;;;;;22.55;9.30;;;17.40;75.80;;;;;;4094057;28;20039;-87
2022/08/04 04:42:31;;;;;;;25.50;9.10;;;17.40;76.20;;;;;;4094983;29;20035;-87
2022/08/04 04:44:52;;;;;;;20.40;9.63;;;17.50;76.70;;;;;;4093127;28;20574;-87
2022/08/04 04:47:14;;;;;;;20.98;9.32;;;17.70;78.00;;;;;;4090351;28;20067;-86
2022/08/04 04:49:33;;;;;;;22.42;10.15;;;17.60;78.30;;;;;;4091990;28;20027;-87
2022/08/04 04:51:52;;;;;;;20.90;9.73;;;17.70;79.10;;;;;;4108755;28;20062;-86
2022/08/04 04:54:05;;;;;;;24.38;10.30;;;17.80;79.50;;;;;;4112330;28;20446;-87
2022/08/04 04:56:27;;;;;;;27.00;10.07;;;17.90;79.60;;;;;;4108604;28;20042;-87
2022/08/04 04:58:32;;;;;;;23.65;10.05;;;18.10;80.20;;;;;;4109633;28;20035;-87
2022/08/04 05:00:51;;;;;;;18.65;9.80;;;18.20;79.90;;;;;;4077847;29;20094;-87
2022/08/04 05:03:17;;;;;;;21.00;9.98;;;18.30;80.60;;;;;;4090964;29;20062;-87
2022/08/04 05:05:48;;;;;;;25.75;10.38;;;18.40;80.30;;;;;;4093060;28;20023;-88
2022/08/04 05:08:06;;;;;;;17.05;10.05;;;18.50;80.60;;;;;;4074900;29;20537;-87
2022/08/04 05:10:42;;;;;;;19.77;9.73;;;18.60;80.30;;;;;;4093553;28;20039;-88
2022/08/04 05:13:04;;;;;;;16.77;9.50;;;18.70;80.10;;;;;;4072829;29;20488;-87
2022/08/04 05:15:07;;;;;;;21.50;9.70;;;18.80;80.60;;;;;;4109105;28;20041;-88
2022/08/04 05:17:44;;;;;;;21.27;9.93;;;18.80;80.20;;;;;;4092704;28;20046;-88
2022/08/04 05:20:06;;;;;;;17.20;9.35;;;18.90;81.00;;;;;;4110888;28;20065;-87
2022/08/04 05:22:11;;;;;;;17.48;9.77;;;19.00;80.60;;;;;;4110490;28;20023;-87
2022/08/04 05:24:16;;;;;;;24.65;9.65;;;19.10;80.80;;;;;;4112157;28;20035;-87
2022/08/04 05:26:25;;;;;;;23.50;9.27;;;19.20;81.00;;;;;;4110527;28;20163;-87
2022/08/04 05:28:40;;;;;;;20.63;8.63;;;19.30;81.30;;;;;;4106245;28;20031;-87
2022/08/04 05:30:56;;;;;;;23.30;9.52;;;19.40;81.40;;;;;;4092821;28;20039;-87
2022/08/04 05:33:12;;;;;;;20.42;8.60;;;19.50;81.30;;;;;;4105542;28;20022;-85
2022/08/04 05:35:45;;;;;;;22.02;8.07;;;19.50;81.10;;;;;;4107843;28;20027;-86
2022/08/04 05:37:53;;;;;;;24.13;8.00;;;19.70;81.30;;;;;;4109667;28;20061;-87
2022/08/04 05:40:08;;;;;;;23.50;7.70;;;19.80;80.70;;;;;;4108117;28;20023;-86
2022/08/04 05:42:18;;;;;;;14.20;6.50;;;19.90;80.60;;;;;;4093893;28;20534;-87
2022/08/04 05:44:24;;;;;;;14.95;6.80;;;20.00;80.40;;;;;;4093711;28;20027;-87
2022/08/04 05:46:50;;;;;;;17.35;7.25;;;20.00;80.30;;;;;;4079451;28;20039;-87
2022/08/04 05:48:59;;;;;;;21.92;6.68;;;20.10;80.30;;;;;;4092747;28;20047;-88
2022/08/04 05:51:02;;;;;;;25.25;7.28;;;20.20;80.20;;;;;;4112577;28;20143;-87
2022/08/04 05:53:10;;;;;;;15.32;5.82;;;20.40;80.30;;;;;;4108000;28;20034;-87
2022/08/04 05:55:25;;;;;;;24.05;5.80;;;20.40;80.00;;;;;;4075123;29;20036;-88
2022/08/04 05:58:05;;;;;;;14.82;5.10;;;20.50;80.00;;;;;;4074276;29;20487;-87
2022/08/04 06:00:23;;;;;;;9.15;4.80;;;20.60;79.90;;;;;;4076150;29;20024;-88
2022/08/04 06:02:35;;;;;;;16.70;4.05;;;20.70;79.80;;;;;;4091283;29;20031;-88
2022/08/04 06:05:17;;;;;;;10.45;4.00;;;20.90;79.60;;;;;;4094142;28;20491;-88
2022/08/04 06:07:47;;;;;;;12.35;4.07;;;21.00;79.40;;;;;;4093277;28;20059;-87
2022/08/04 06:12:51;;;;;;;13.27;3.22;;;21.20;79.30;;;;;;4138181;28;20442;-87
2022/08/04 06:14:55;;;;;;;17.98;3.35;;;21.30;79.20;;;;;;4114307;28;20553;-88
2022/08/04 06:17:24;;;;;;;14.73;3.50;;;21.50;79.10;;;;;;4111041;28;20031;-87
2022/08/04 06:19:55;;;;;;;8.70;2.75;;;21.50;78.50;;;;;;4107791;28;20035;-87
2022/08/04 06:22:13;;;;;;;5.93;2.30;;;21.70;77.80;;;;;;4108177;28;20117;-87
2022/08/04 06:27:12;;;;;;;6.47;2.00;;;22.00;77.00;;;;;;4108349;28;20547;-87
2022/08/04 06:29:40;;;;;;;14.52;2.90;;;22.10;76.40;;;;;;4122501;28;20032;-88
2022/08/04 06:35:54;;;;;;;;;;;;;;;;;;;;;
2022/08/04 06:38:37;;;;;;;;;;;;;;;;;;;;;
2022/08/04 06:41:18;;;;;;;;;;;;;;;;;;;;;
2022/08/04 06:44:04;;;;;;;8.05;2.15;;;22.80;71.60;;;;;;4096456;28;20075;-86
2022/08/04 06:49:14;;;;;;;6.93;1.95;;;23.00;70.80;;;;;;4117701;28;20504;-86
2022/08/04 06:52:00;;;;;;;8.32;1.90;;;23.20;70.20;;;;;;4112004;28;20031;-86
2022/08/04 06:57:09;;;;;;;6.65;1.63;;;23.50;68.50;;;;;;4126214;28;20502;-86
2022/08/04 06:59:57;;;;;;;10.52;2.47;;;23.70;68.70;;;;;;4113517;28;20066;-86
2022/08/04 07:05:13;;;;;;;8.43;1.67;;;23.90;67.40;;;;;;4128474;28;20022;-88
2022/08/04 07:07:25;;;;;;;8.77;1.73;;;24.00;65.50;;;;;;4127533;28;20026;-87
2022/08/04 07:09:35;;;;;;;5.83;1.77;;;24.20;65.90;;;;;;4111426;28;20034;-86
2022/08/04 07:11:36;;;;;;;15.43;1.80;;;24.30;65.60;;;;;;4113129;28;20110;-86
2022/08/04 07:13:37;;;;;;;10.27;1.70;;;24.40;64.90;;;;;;4127959;28;20513;-87
2022/08/04 07:15:42;;;;;;;6.68;1.60;;;24.50;64.60;;;;;;4127524;28;20034;-88
2022/08/04 07:17:45;;;;;;;6.68;2.05;;;24.60;63.80;;;;;;4113644;28;20046;-88
2022/08/04 07:19:46;;;;;;;6.47;1.85;;;24.70;63.40;;;;;;4128773;28;20138;-87
2022/08/04 07:21:47;;;;;;;5.78;1.55;;;24.80;62.70;;;;;;4130234;28;20031;-87
2022/08/04 07:23:49;;;;;;;8.27;1.67;;;24.90;62.20;;;;;;4115683;28;20495;-86
2022/08/04 07:25:51;;;;;;;4.57;1.30;;;25.00;61.80;;;;;;4126694;28;20085;-87
2022/08/04 07:27:52;;;;;;;5.32;1.73;;;25.20;61.50;;;;;;4112904;28;20078;-88
2022/08/04 07:29:53;;;;;;;9.60;1.60;;;25.30;61.10;;;;;;4113602;28;20042;-87
2022/08/04 07:31:55;;;;;;;5.05;1.50;;;25.40;60.90;;;;;;4127163;28;20026;-88
2022/08/04 07:33:56;;;;;;;6.40;1.58;;;25.50;60.60;;;;;;4113384;28;20660;-86
2022/08/04 07:35:57;;;;;;;7.10;2.40;;;25.60;60.10;;;;;;4129295;28;20415;-86
2022/08/04 07:37:58;;;;;;;6.10;1.90;;;25.70;59.70;;;;;;4112813;28;20038;-88
2022/08/04 07:40:00;;;;;;;5.05;1.30;;;25.80;59.20;;;;;;4130252;28;20026;-88
2022/08/04 07:42:01;;;;;;;5.47;1.50;;;25.90;58.40;;;;;;4121599;28;20557;-87
2022/08/04 07:44:04;;;;;;;6.20;1.65;;;26.00;58.50;;;;;;4130726;28;20027;-88
2022/08/04 07:46:04;;;;;;;9.77;2.03;;;26.20;58.20;;;;;;4110129;28;20022;-87
2022/08/04 07:48:06;;;;;;;12.27;1.85;;;26.30;57.80;;;;;;4109375;28;20031;-88
2022/08/04 07:50:09;;;;;;;11.50;1.30;;;26.40;57.30;;;;;;4113459;28;20747;-87
2022/08/04 07:52:12;;;;;;;8.60;2.17;;;26.50;56.80;;;;;;4127195;28;20029;-87
2022/08/04 07:54:14;;;;;;;17.38;2.10;;;26.60;56.40;;;;;;4129966;28;20031;-87
2022/08/04 07:56:15;;;;;;;10.43;2.05;;;26.70;56.20;;;;;;4111137;28;20057;-85
2022/08/04 07:58:16;;;;;;;8.18;1.70;;;26.70;55.80;;;;;;4129991;28;20030;-87
2022/08/04 08:00:17;;;;;;;8.00;1.90;;;26.80;55.50;;;;;;4111461;28;20081;-87
2022/08/04 08:02:19;;;;;;;9.32;1.83;;;26.90;55.30;;;;;;4112569;28;20022;-87
2022/08/04 08:04:21;;;;;;;8.05;1.80;;;26.90;54.90;;;;;;4126545;28;20085;-87
2022/08/04 08:06:23;;;;;;;8.45;1.88;;;27.00;54.60;;;;;;4128410;28;20042;-86
2022/08/04 08:08:24;;;;;;;23.20;2.90;;;27.10;54.70;;;;;;4108120;28;20118;-86
2022/08/04 08:10:25;;;;;;;11.75;1.50;;;27.10;54.40;;;;;;4111346;28;20443;-86
2022/08/04 08:12:27;;;;;;;11.07;1.73;;;27.20;54.10;;;;;;4125319;28;20610;-86
2022/08/04 08:14:29;;;;;;;8.35;1.75;;;27.30;54.00;;;;;;4110439;28;20071;-86
2022/08/04 08:16:32;;;;;;;6.93;1.38;;;27.30;53.70;;;;;;4115855;28;20018;-88
2022/08/04 08:18:33;;;;;;;9.15;1.25;;;27.30;53.20;;;;;;4111969;28;20490;-87
2022/08/04 08:20:34;;;;;;;14.10;2.15;;;27.40;53.10;;;;;;4129739;28;20035;-88
2022/08/04 08:22:36;;;;;;;9.25;1.80;;;27.40;53.00;;;;;;4107514;28;20039;-87
2022/08/04 08:24:37;;;;;;;10.82;1.73;;;27.40;52.70;;;;;;4128482;28;20556;-86
2022/08/04 08:26:40;;;;;;;10.63;1.70;;;27.50;52.40;;;;;;4110087;28;20059;-86
2022/08/04 08:28:45;;;;;;;7.47;1.35;;;27.50;52.40;;;;;;4112342;28;20486;-87
2022/08/04 08:30:46;;;;;;;13.75;2.08;;;27.50;52.40;;;;;;4128792;28;20052;-88
2022/08/04 08:32:47;;;;;;;9.32;1.67;;;27.60;52.30;;;;;;4111870;28;20030;-87
2022/08/04 08:34:48;;;;;;;10.77;1.45;;;27.60;52.10;;;;;;4111279;28;20062;-87
2022/08/04 08:36:57;;;;;;;8.38;1.65;;;27.60;52.10;;;;;;4125491;28;20027;-86
2022/08/04 08:39:27;;;;;;;6.20;1.58;;;27.60;51.90;;;;;;4126654;28;20113;-87
2022/08/04 08:42:05;;;;;;;9.88;2.00;;;27.70;51.20;;;;;;4092955;28;20031;-87
2022/08/04 08:44:27;;;;;;;11.85;2.65;;;27.80;51.70;;;;;;4127945;28;20251;-87
2022/08/04 08:47:05;;;;;;;16.38;1.65;;;27.90;51.70;;;;;;4126443;28;20037;-88
2022/08/04 08:49:42;;;;;;;11.43;1.58;;;28.00;51.20;;;;;;4111242;28;20054;-87
2022/08/04 08:51:49;;;;;;;15.15;2.05;;;28.10;50.70;;;;;;4109607;28;20580;-87
2022/08/04 08:54:18;;;;;;;9.02;1.63;;;28.10;50.80;;;;;;4127159;28;20170;-86
2022/08/04 08:56:38;;;;;;;6.22;1.80;;;28.20;50.00;;;;;;4123025;28;20398;-87
2022/08/04 08:58:47;;;;;;;9.88;1.50;;;28.30;49.50;;;;;;4105841;28;20110;-85
2022/08/04 09:01:03;;;;;;;7.78;1.40;;;28.30;50.10;;;;;;4126128;28;20410;-87
2022/08/04 09:03:40;;;;;;;17.00;1.95;;;28.40;49.80;;;;;;4114726;28;20125;-88
2022/08/04 09:05:59;;;;;;;8.60;2.00;;;28.50;48.80;;;;;;4110996;28;20030;-87
2022/08/04 09:08:00;;;;;;;4.00;1.23;;;28.60;50.10;;;;;;4108214;28;20521;-87
2022/08/04 09:10:14;;;;;;;7.50;2.13;;;28.70;49.80;;;;;;4127344;28;20105;-88
2022/08/04 09:12:30;;;;;;;11.73;1.60;;;28.80;48.60;;;;;;4128004;28;20483;-87
2022/08/04 09:14:42;;;;;;;12.57;1.85;;;28.90;48.50;;;;;;4126415;28;20053;-87
2022/08/04 09:17:05;;;;;;;11.27;1.70;;;28.90;48.00;;;;;;4123538;28;20022;-85
2022/08/04 09:19:30;;;;;;;7.45;1.40;;;29.00;47.50;;;;;;4106199;28;20027;-84
2022/08/04 09:21:55;;;;;;;4.85;1.30;;;29.10;47.40;;;;;;4109309;28;20093;-83
2022/08/04 09:24:22;;;;;;;10.45;1.90;;;29.20;46.90;;;;;;4109926;28;20042;-84
2022/08/04 09:26:49;;;;;;;5.50;1.27;;;29.30;46.50;;;;;;4126453;28;20038;-87
2022/08/04 09:29:08;;;;;;;11.27;1.95;;;29.30;46.70;;;;;;4125142;28;20046;-87
2022/08/04 09:31:14;;;;;;;5.32;1.10;;;29.40;47.00;;;;;;4111056;28;20107;-87
2022/08/04 09:33:26;;;;;;;7.95;1.70;;;29.50;46.20;;;;;;4124839;28;20034;-86
2022/08/04 09:35:46;;;;;;;7.35;1.20;;;29.50;45.60;;;;;;4111005;28;20558;-85
2022/08/04 09:38:05;;;;;;;8.32;1.27;;;29.60;45.80;;;;;;4126623;28;20474;-85
2022/08/04 09:40:17;;;;;;;11.60;1.65;;;29.70;45.60;;;;;;4110085;28;20029;-86
2022/08/04 09:42:44;;;;;;;8.45;1.48;;;29.80;45.30;;;;;;4126001;28;20030;-86
2022/08/04 09:44:55;;;;;;;3.63;1.20;;;29.80;44.80;;;;;;4109433;28;20387;-85
2022/08/04 09:47:12;;;;;;;7.55;1.42;;;30.00;44.80;;;;;;4125622;28;20034;-84
2022/08/04 09:49:27;;;;;;;3.95;1.30;;;30.00;43.70;;;;;;4126380;28;20037;-86
2022/08/04 09:51:52;;;;;;;4.90;1.40;;;30.00;43.50;;;;;;4107718;28;20038;-86
2022/08/04 09:54:08;;;;;;;9.93;1.60;;;30.10;43.10;;;;;;4109279;28;20591;-87
2022/08/04 09:56:19;;;;;;;7.72;1.30;;;30.20;42.00;;;;;;4109262;28;20019;-87
2022/08/04 09:58:42;;;;;;;15.02;1.60;;;30.20;42.50;;;;;;4126214;28;20101;-87
2022/08/04 10:00:48;;;;;;;7.78;1.38;;;30.20;42.80;;;;;;4127704;28;20026;-86
2022/08/04 10:02:53;;;;;;;6.18;1.50;;;30.20;42.80;;;;;;4108301;28;20027;-84
2022/08/04 10:04:55;;;;;;;6.15;1.48;;;30.20;42.30;;;;;;4093969;28;20035;-86
2022/08/04 10:07:15;;;;;;;5.53;1.08;;;30.30;41.50;;;;;;4126089;28;20038;-84
2022/08/04 10:09:34;;;;;;;8.57;1.48;;;30.30;41.60;;;;;;4124831;28;20280;-85
2022/08/04 10:12:20;;;;;;;6.72;1.15;;;30.30;41.70;;;;;;4111319;28;20063;-86
2022/08/04 10:14:40;;;;;;;5.13;0.95;;;30.40;41.30;;;;;;4110101;28;20321;-86
2022/08/04 10:17:04;;;;;;;4.47;1.20;;;30.40;41.30;;;;;;4127647;28;20026;-85
2022/08/04 10:19:31;;;;;;;7.75;1.15;;;30.40;41.50;;;;;;4110962;28;20031;-87
2022/08/04 10:21:49;;;;;;;7.57;1.88;;;30.50;41.80;;;;;;4114497;28;20043;-86
2022/08/04 10:24:24;;;;;;;9.50;1.50;;;30.60;41.90;;;;;;4127624;28;20398;-86
2022/08/04 10:26:46;;;;;;;8.05;1.20;;;30.60;41.10;;;;;;4112695;28;20426;-86
2022/08/04 10:29:05;;;;;;;11.05;1.33;;;30.70;39.60;;;;;;4132296;28;20026;-87
2022/08/04 10:31:42;;;;;;;11.57;1.38;;;30.70;40.60;;;;;;4114950;28;20120;-86
2022/08/04 10:34:03;;;;;;;6.40;1.00;;;30.70;40.40;;;;;;4119113;28;20097;-87
2022/08/04 10:36:08;;;;;;;3.67;1.08;;;30.80;39.10;;;;;;4128125;28;20026;-84
2022/08/04 10:38:30;;;;;;;4.07;1.25;;;30.80;39.20;;;;;;4132200;28;20018;-87
2022/08/04 10:40:46;;;;;;;7.43;1.80;;;30.90;39.10;;;;;;4130246;28;20046;-88
2022/08/04 10:43:01;;;;;;;3.83;0.98;;;30.90;38.50;;;;;;4134527;28;20030;-88
2022/08/04 10:45:09;;;;;;;7.95;1.25;;;31.00;38.60;;;;;;4114980;28;20031;-86
2022/08/04 10:47:20;;;;;;;4.22;1.00;;;31.00;38.20;;;;;;4113429;28;20022;-88
2022/08/04 10:49:22;;;;;;;6.95;1.40;;;31.10;38.40;;;;;;4128289;28;20414;-87
2022/08/04 10:51:37;;;;;;;5.30;1.77;;;31.20;38.20;;;;;;4113092;28;20034;-86
2022/08/04 10:53:42;;;;;;;6.07;0.90;;;31.30;37.60;;;;;;4107613;28;20031;-88
2022/08/04 10:55:51;;;;;;;3.33;0.80;;;31.30;36.80;;;;;;4108353;28;20031;-86
2022/08/04 10:58:01;;;;;;;3.13;0.93;;;31.40;36.60;;;;;;4111743;28;20078;-84
2022/08/04 11:00:02;;;;;;;6.00;1.35;;;31.50;37.40;;;;;;4129623;28;20026;-86
2022/08/04 11:02:34;;;;;;;5.72;1.00;;;31.50;37.30;;;;;;4109576;28;20075;-87
2022/08/04 11:04:46;;;;;;;5.28;0.90;;;31.60;36.70;;;;;;4099821;28;20028;-86
2022/08/04 11:06:48;;;;;;;4.45;0.75;;;31.70;36.50;;;;;;4127052;28;20394;-87
2022/08/04 11:08:53;;;;;;;3.30;1.10;;;31.70;36.60;;;;;;4126324;28;20026;-88
2022/08/04 11:11:21;;;;;;;9.50;1.65;;;31.80;36.70;;;;;;4129574;28;20062;-87
2022/08/04 11:13:24;;;;;;;9.63;1.13;;;31.90;36.20;;;;;;4129354;28;20034;-85
2022/08/04 11:15:42;;;;;;;4.97;1.23;;;32.00;36.20;;;;;;4109951;28;20021;-88
2022/08/04 11:17:55;;;;;;;4.78;1.13;;;32.00;35.00;;;;;;4110749;28;20030;-87
2022/08/04 11:20:12;;;;;;;5.65;1.10;;;32.10;35.00;;;;;;4114101;28;20437;-87
2022/08/04 11:22:19;;;;;;;11.48;1.58;;;32.10;35.60;;;;;;4128301;28;20042;-87
2022/08/04 11:24:48;;;;;;;2.25;0.88;;;32.20;34.60;;;;;;4124404;28;20040;-87
2022/08/04 11:27:02;;;;;;;7.85;2.45;;;32.20;34.80;;;;;;4126564;28;20041;-86
2022/08/04 11:29:25;;;;;;;5.18;1.60;;;32.30;34.50;;;;;;4127739;28;20410;-86
2022/08/04 11:31:30;;;;;;;1.90;0.90;;;32.40;33.20;;;;;;4128250;28;20026;-88
2022/08/04 11:33:38;;;;;;;15.63;1.00;;;32.40;33.60;;;;;;4128960;28;20033;-86
2022/08/04 11:35:51;;;;;;;2.17;1.42;;;32.40;33.20;;;;;;4128944;28;20042;-85
2022/08/04 11:38:01;;;;;;;13.68;1.67;;;32.50;33.30;;;;;;4128505;28;20034;-86
2022/08/04 11:40:20;;;;;;;2.42;0.70;;;32.50;33.00;;;;;;4126171;28;20030;-84
2022/08/04 11:42:26;;;;;;;2.85;0.98;;;32.60;32.10;;;;;;4126122;28;20034;-86
2022/08/04 11:44:47;;;;;;;6.68;1.00;;;32.70;32.40;;;;;;4110951;28;20059;-86
2022/08/04 11:46:52;;;;;;;8.57;1.05;;;32.70;32.80;;;;;;4109883;28;20027;-86
2022/08/04 11:49:15;;;;;;;5.10;0.90;;;32.80;32.70;;;;;;4128355;28;20069;-88
2022/08/04 11:51:18;;;;;;;3.67;1.10;;;32.80;31.60;;;;;;4125054;28;20054;-88
2022/08/04 11:53:22;;;;;;;2.33;0.95;;;32.80;30.00;;;;;;4111036;28;20058;-89
2022/08/04 11:55:26;;;;;;;4.13;0.90;;;32.90;30.60;;;;;;4113329;28;20951;-88
2022/08/04 11:57:29;;;;;;;2.38;1.00;;;32.90;31.20;;;;;;4128631;28;20676;-89
2022/08/04 11:59:32;;;;;;;4.50;0.90;;;33.00;31.30;;;;;;4125148;28;20030;-85
2022/08/04 12:01:47;;;;;;;9.93;1.38;;;33.00;31.60;;;;;;4127609;28;20031;-87
2022/08/04 12:04:17;;;;;;;6.25;1.30;;;33.00;31.30;;;;;;4110829;28;20027;-85